KQFX

Buron

Buron, South Korea
METAR KQFX 190900Z AUTO 10001KT 9999 OVC085 23/19 A2990 RMK A02 TSNO
Observed Flight Rules
Sep-19 @ 09:00 UTC (11 minutes ago) Visual Flight Rules
Wind Visibility Clouds
100° at 1 knots 10,000+ meters
  • Overcast at 8,500' AGL
Temperatures Readings
Current 23°C / 73°F
Dewpoint 19°C / 66°F
Humidity 78%
Altimeter 29.9" Hg
Pressure 1013 hPa
METAR KQFX 190900Z AUTO 10001KT 9999 OVC085 23/19 A2990 RMK A02 TSNO
Observed Flight Rules
Sep-19 @ 09:00 UTC
(11 minutes ago)
VFR
Wind Visibility
100° at 1 knots 10,000+ meters
Clouds
  • Overcast at 8,500' AGL
Temperature Dewpoint
23°C / 73°F 19°C / 66°F
Humidity Altimeter Pressure
78% 29.9" Hg 1013 hPa